Tiempo atmosférico en la estación meteorológica de Hijar, Teruel (300 m.)



Fecha
DESCASC
Temp. máxima en grados centígrados (hora)
DESCASC
Temp. mínima en grados centígrados (hora)
DESCASC
Temp. media en grados centígrados
DESCASC
Racha de viento máxima en m/sg (hora)
DESCASC
Velocidad máxima media en intervalos de 10 minutos(hora)
DESCASC
Precipitaciones diarias en mm
DESCASC
Precipitaciones de 00:00 a 06:00 en mm
DESCASC
Precipitaciones de 06:00 a 12:00 en mm
DESCASC
Precipitaciones de 12:00 a 18:00 en mm
DESCASC
Precipitaciones de 18:00 a 24:00 en mm
DESCASC
23-06-2019 37 (16:20) 16.8 (06:50) 26.9 14.17 (18:10) 9.72 (18:10) 0 0 0 0 0
22-06-2019 32.8 (18:40) 13.5 (07:10) 23.1 12.22 (20:10) 7.22 (20:10) 0 0 0 0 0
21-06-2019 29.7 (17:00) 17 (06:00) 23.4 7.78 (23:00) 3.33 (23:00) 0 0 0 0 0
20-06-2019 35.3 (16:20) 18.4 (00:00) 26.8 9.44 (18:40) 6.11 (17:10) 6.6 0 0 6.6 0
19-06-2019 -- (--) -- (--) -- -- (--) -- (--) -- -- -- -- 0
18-06-2019 -- (--) -- (--) -- -- (--) -- (--) -- 0 0 0 --
17-06-2019 36.1 (17:20) 14 (00:00) 25 12.5 (23:50) 8.61 (23:50) 0 0 0 0 0
16-06-2019 34 (17:40) 13.1 (00:00) 23.6 8.89 (18:40) 5.83 (19:50) 0 0 0 0 0
15-06-2019 31 (16:30) 13.8 (00:00) 22.4 8.06 (15:50) 5 (07:00) 0 0 0 0 0
14-06-2019 30.6 (17:40) 14 (00:00) 22.3 7.78 (18:50) 4.72 (19:40) 0 0 0 0 0
13-06-2019 28.2 (15:30) 10.1 (00:00) 19.2 15.83 (16:40) 11.11 (16:20) 0 0 0 0 0
12-06-2019 25.9 (15:50) 8.1 (00:00) 17 11.94 (19:40) 7.5 (19:50) 0 0 0 0 0
11-06-2019 22 (16:50) 11.6 (00:00) 16.8 9.72 (17:00) 5.83 (14:40) 0.4 0 0.2 0.2 0
10-06-2019 26.7 (16:20) 13.3 (00:00) 20 13.33 (10:40) 6.94 (01:20) 0 0 0 0 0
09-06-2019 32.5 (17:10) 14.6 (00:00) 23.6 11.11 (22:40) 6.39 (00:10) 0 0 0 0 0
08-06-2019 28.8 (16:00) 10.2 (00:00) 19.5 15 (20:40) 11.11 (20:50) 0 0 0 0 0
07-06-2019 27.2 (16:20) 15.2 (00:00) 21.2 15.28 (00:20) 9.72 (00:30) 0 0 0 0 0
06-06-2019 28.8 (16:40) 9.8 (00:00) 19.3 20 (18:40) 12.5 (18:40) 0 0 0 0 0
05-06-2019 23.6 (17:30) 13.8 (00:00) 18.7 14.72 (14:10) 7.5 (13:30) 0 0 0 0 0
04-06-2019 32.7 (15:30) 13.7 (00:00) 23.2 13.89 (16:20) 10 (16:20) 0 0 0 0 0
03-06-2019 33.5 (18:20) 15 (00:00) 24.3 10.56 (17:00) 7.22 (20:20) 0 0 0 0 0
02-06-2019 34.2 (15:50) 13.4 (00:00) 23.8 9.72 (19:30) 6.94 (19:30) 0 0 0 0 0
01-06-2019 33.6 (17:10) 13.2 (00:00) 23.4 10 (19:30) 6.39 (20:20) 0 0 0 0 0
31-05-2019 31.2 (17:30) 12.5 (00:00) 21.9 7.22 (20:40) 5.56 (20:40) 0 0 0 0 0
30-05-2019 29.8 (16:30) 11 (00:00) 20.4 8.89 (13:20) 4.44 (00:30) 0 0 0 0 0
29-05-2019 23.8 (17:00) 11 (00:00) 17.4 14.72 (11:40) 6.67 (00:10) 0 0 0 0 0
28-05-2019 22.5 (15:00) 11.8 (00:00) 17.2 16.39 (20:30) 8.33 (21:40) 0 0 0 0 0
27-05-2019 27.3 (16:20) 12.1 (00:00) 19.7 13.89 (18:30) 6.94 (23:10) 0 0 0 0 0
26-05-2019 24.4 (16:20) 10.9 (00:00) 17.6 11.94 (21:10) 6.39 (23:00) 0 0 0 0 0
25-05-2019 23.8 (16:50) 12.7 (00:00) 18.2 12.22 (20:00) 5.83 (23:50) 0 0 0 0 0

Gráficas

Temp. máximas Temp. mínimas Temp. medias Precipitaciones Rachas de viento máximas Velocidades máximas media en intervalos de 10 minutos

Datos horarios

Fecha y hora oficial Temperatura (ºC) Velocidad del viento (km/h) Dirección del viento Racha (km/h) Dirección de racha Precipitación (mm) Presión (hPa) Tendencia (hPa) Humedad (%)
2019-06-23 23:00:00 28.4 21 Sudeste 39 Sudeste 0 -- -- 30
2019-06-23 22:00:00 29.7 27 Sudeste 44 Sudeste 0 -- -- 29
2019-06-23 21:00:00 31.8 24 Sudeste 42 Sudeste 0 -- -- 29
2019-06-23 20:00:00 34.9 31 Este 50 Este 0 -- -- 27
2019-06-23 19:00:00 36.7 22 Este 51 Nordeste 0 -- -- 26
2019-06-23 18:00:00 36 31 Nordeste 49 Nordeste 0 -- -- 28
2019-06-23 17:00:00 36.3 30 Este 44 Nordeste 0 -- -- 28
2019-06-23 16:00:00 36.7 23 Este 40 Este 0 -- -- 26
2019-06-23 15:00:00 35.9 18 Nordeste 36 Nordeste 0 -- -- 28
2019-06-23 14:00:00 34.8 17 Nordeste 28 Nordeste 0 -- -- 29
2019-06-23 13:00:00 32.5 18 Este 28 Nordeste 0 -- -- 36
2019-06-23 12:00:00 30.6 10 Nordeste 20 Este 0 -- -- 42
2019-06-23 11:00:00 27.4 6 Nordeste 17 Nordeste 0 -- -- 52
2019-06-23 10:00:00 24.8 6 Nordeste 13 Nordeste 0 -- -- 58
2019-06-23 09:00:00 22.6 4 Nordeste 9 Nordeste 0 -- -- 65
2019-06-23 08:00:00 18.9 3 Sudoeste 8 Sudoeste 0 -- -- 74
2019-06-23 07:00:00 16.9 4 Sudoeste 6 Sudoeste 0 -- -- 81
2019-06-23 06:00:00 17.2 5 Sudoeste 8 Sudoeste 0 -- -- 80
2019-06-23 05:00:00 17.9 4 Sudoeste 9 Oeste 0 -- -- 77
2019-06-23 04:00:00 18.4 4 Oeste 6 Oeste 0 -- -- 76
2019-06-23 03:00:00 19.4 3 Sudoeste 5 Sudoeste 0 -- -- 73
2019-06-23 02:00:00 20.4 0 Calma 4 Norte 0 -- -- 69
2019-06-23 01:00:00 21.4 5 Nordeste 12 Nordeste 0 -- -- 66
2019-06-23 00:00:00 22.7 10 Nordeste 16 Nordeste 0 -- -- 62
2019-06-22 23:00:00 24.4 12 Nordeste 21 Nordeste 0 -- -- 56
2019-06-22 22:00:00 27.2 13 Sudeste 26 Este 0 -- -- 50
2019-06-22 21:00:00 29.1 23 Este 44 Este 0 -- -- 40
2019-06-22 20:00:00 30.5 24 Este 38 Este 0 -- -- 37
2019-06-22 19:00:00 32.1 19 Nordeste 32 Nordeste 0 -- -- 29
2019-06-22 18:00:00 32.4 17 Nordeste 29 Este 0 -- -- 31
2019-06-22 17:00:00 32 11 Nordeste 27 Nordeste 0 -- -- 32
2019-06-22 16:00:00 31.7 10 Nordeste 23 Este 0 -- -- 32
2019-06-22 15:00:00 30.1 9 Nordeste 18 Nordeste 0 -- -- 35
2019-06-22 14:00:00 29.2 6 Nordeste 19 Nordeste 0 -- -- 35
2019-06-22 13:00:00 26.9 7 Nordeste 16 Nordeste 0 -- -- 37
2019-06-22 12:00:00 24.5 5 Nordeste 14 Nordeste 0 -- -- 40
2019-06-22 11:00:00 23.8 5 Norte 13 Este 0 -- -- 44
2019-06-22 10:00:00 21.4 5 Nordeste 10 Nordeste 0 -- -- 52
2019-06-22 09:00:00 19.2 3 Nordeste 9 Nordeste 0 -- -- 58
2019-06-22 08:00:00 15.7 2 Oeste 7 Sudoeste 0 -- -- 68
2019-06-22 07:00:00 13.6 2 Sur 4 Este 0 -- -- 74
2019-06-22 06:00:00 14 4 Nordeste 10 Sudoeste 0 -- -- 73
2019-06-22 05:00:00 14.7 10 Sudoeste 12 Sudoeste 0 -- -- 69
2019-06-22 04:00:00 15.7 8 Sudoeste 12 Oeste 0 -- -- 66
2019-06-22 03:00:00 16.2 9 Sudoeste 15 Sudoeste 0 -- -- 64
2019-06-22 02:00:00 16.6 9 Sudoeste 18 Oeste 0 -- -- 63
2019-06-22 01:00:00 17.8 11 Oeste 23 Oeste 0 -- -- 60
2019-06-22 00:00:00 18.8 10 Oeste 23 Noroeste 0 -- -- 57
2019-06-21 23:00:00 20 12 Noroeste 28 Oeste 0 -- -- 52
2019-06-21 22:00:00 21.4 9 Noroeste 21 Noroeste 0 -- -- 51
2019-06-21 21:00:00 23.6 7 Noroeste 25 Noroeste 0 -- -- 46
2019-06-21 20:00:00 26.1 7 Noroeste 28 Norte 0 -- -- 42
2019-06-21 19:00:00 27.7 6 Norte 23 Noroeste 0 -- -- 42
2019-06-21 18:00:00 28.1 4 Norte 18 Noroeste 0 -- -- 43
2019-06-21 17:00:00 29.7 6 Norte 19 Noroeste 0 -- -- 40
2019-06-21 16:00:00 27.8 6 Noroeste 24 Noroeste 0 -- -- 45
2019-06-21 15:00:00 27.5 9 Norte 24 Norte 0 -- -- 47
2019-06-21 14:00:00 26.8 9 Noroeste 26 Noroeste 0 -- -- 50
2019-06-21 13:00:00 25.5 9 Noroeste 23 Norte 0 -- -- 52
2019-06-21 12:00:00 24.2 6 Noroeste 21 Noroeste 0 -- -- 54
2019-06-21 11:00:00 22.1 6 Noroeste 17 Noroeste 0 -- -- 61
2019-06-21 10:00:00 21.8 8 Oeste 22 Oeste 0 -- -- 63
2019-06-21 09:00:00 18.4 6 Noroeste 19 Oeste 0 -- -- 74
2019-06-21 08:00:00 17.3 6 Noroeste 19 Noroeste 0 -- -- 78
2019-06-21 07:00:00 17.2 7 Oeste 18 Oeste 0 -- -- 78
2019-06-21 06:00:00 17 8 Noroeste 24 Noroeste 0 -- -- 79
2019-06-21 05:00:00 17.2 4 Noroeste 14 Oeste 0 -- -- 78
2019-06-21 04:00:00 17.1 4 Oeste 14 Noroeste 0 -- -- 77
2019-06-21 03:00:00 17.4 5 Noroeste 12 Oeste 0 -- -- 76
2019-06-21 02:00:00 17.6 6 Oeste 13 Oeste 0 -- -- 74
2019-06-21 01:00:00 18 4 Noroeste 13 Norte 0 -- -- 75
2019-06-21 00:00:00 18.4 3 Noroeste 13 Norte 0 -- -- 72
2019-06-20 23:00:00 19.3 5 Noroeste 19 Noroeste 0 -- -- 72
2019-06-20 22:00:00 21.4 8 Nordeste 11 Nordeste 0 -- -- 75
2019-06-20 21:00:00 23 5 Nordeste 19 Sudeste 0 -- -- 65
2019-06-20 20:00:00 23.8 14 Este 31 Este 0 -- -- 65
2019-06-20 19:00:00 23.9 20 Este 34 Este 0 -- -- 67
2019-06-20 18:00:00 19.9 13 Nordeste 33 Este 6.6 -- -- 94
2019-06-20 17:00:00 29.1 16 Este 31 Nordeste 0 -- -- 41
2019-06-20 16:00:00 33.2 12 Nordeste 27 Nordeste 0 -- -- 31
2019-06-20 15:00:00 31.9 9 Nordeste 22 Nordeste 0 -- -- 33
2019-06-20 14:00:00 31.8 6 Norte 19 Nordeste 0 -- -- 35
2019-06-20 13:00:00 30.1 5 Norte 22 Noroeste 0 -- -- 37
2019-06-20 12:00:00 29 9 Norte 26 Noroeste 0 -- -- 39
2019-06-20 11:00:00 26.8 8 Norte 22 Norte 0 -- -- 43
2019-06-20 10:00:00 24.9 7 Noroeste 22 Noroeste 0 -- -- 48
2019-06-20 09:00:00 22.8 9 Noroeste 27 Oeste 0 -- -- 53
2019-06-20 08:00:00 20 16 Oeste 26 Oeste 0 -- -- 63
2019-06-20 07:00:00 18.7 14 Oeste 24 Oeste 0 -- -- 67
2019-06-20 06:00:00 19.1 11 Oeste 21 Oeste 0 -- -- 65
2019-06-20 05:00:00 20.5 9 Oeste 22 Oeste 0 -- -- 61
2019-06-20 04:00:00 21.6 3 Noroeste 13 Oeste 0 -- -- 51
2019-06-20 03:00:00 22.7 7 Oeste 17 Oeste 0 -- -- 48
2019-06-20 02:00:00 23.4 8 Oeste 20 Noroeste 0 -- -- 46
2019-06-20 01:00:00 24.8 7 Noroeste 22 Noroeste 0 -- -- 44
2019-06-20 00:00:00 26 0 Calma 18 Este 0 -- -- 45
2019-06-19 23:00:00 27.9 12 Nordeste 29 Nordeste 0 -- -- 38
2019-06-19 22:00:00 29 9 Nordeste 18 Nordeste 0 -- -- 34
2019-06-19 21:00:00 30.3 2 Noroeste 12 Norte 0 -- -- 32
2019-06-19 20:00:00 31.6 3 Norte 15 Norte 0 -- -- 30
2019-06-19 19:00:00 33.7 4 Sudoeste 21 Nordeste 0 -- -- 27
2019-06-19 18:00:00 34.1 8 Nordeste 23 Nordeste 0 -- -- 27
2019-06-19 17:00:00 33.1 12 Nordeste 31 Nordeste 0 -- -- 28
2019-06-19 16:00:00 33.9 8 Nordeste 27 Nordeste 0 -- -- 27
2019-06-19 15:00:00 35.7 6 Noroeste -- -- -- -- -- 25
2019-06-19 14:00:00 34 6 Norte 22 Norte 0 -- -- 27
2019-06-19 13:00:00 32.9 5 Norte 20 Norte 0 -- -- 29
2019-06-19 12:00:00 31.1 7 Noroeste 17 Norte 0 -- -- 31
2019-06-19 11:00:00 -- -- -- -- -- -- -- -- --
2019-06-19 10:00:00 -- -- -- -- -- -- -- -- --
2019-06-19 09:00:00 -- -- -- -- -- -- -- -- --
2019-06-19 08:00:00 -- -- -- -- -- -- -- -- --
2019-06-19 07:00:00 -- -- -- -- -- -- -- -- --
2019-06-19 06:00:00 -- -- -- -- -- -- -- -- --
2019-06-19 05:00:00 -- -- -- -- -- -- -- -- --
2019-06-19 04:00:00 -- -- -- -- -- -- -- -- --
2019-06-19 03:00:00 -- -- -- -- -- -- -- -- --
2019-06-19 02:00:00 -- -- -- -- -- -- -- -- --
2019-06-19 01:00:00 -- -- -- -- -- -- -- -- --
2019-06-19 00:00:00 -- -- -- -- -- -- -- -- --
2019-06-18 23:00:00 -- -- -- -- -- -- -- -- --
2019-06-18 22:00:00 -- -- -- -- -- -- -- -- --
2019-06-18 21:00:00 -- -- -- -- -- -- -- -- --
2019-06-18 20:00:00 -- -- -- -- -- -- -- -- --
2019-06-18 19:00:00 35.4 30 Sudeste 45 Sudeste 0 -- -- 24
2019-06-18 18:00:00 35.4 17 Nordeste 35 Nordeste 0 -- -- 29
2019-06-18 17:00:00 36 16 Este 46 Nordeste 0 -- -- 25
2019-06-18 16:00:00 35.6 21 Este 35 Este 0 -- -- 25
2019-06-18 15:00:00 35.5 17 Nordeste 29 Nordeste 0 -- -- 25
2019-06-18 14:00:00 35.2 11 Nordeste 26 Nordeste 0 -- -- 26
2019-06-18 13:00:00 33.1 6 Nordeste 21 Nordeste 0 -- -- 27
2019-06-18 12:00:00 31.3 6 Norte 18 Nordeste 0 -- -- 29
2019-06-18 11:00:00 28.7 6 Nordeste 19 Nordeste 0 -- -- 33
2019-06-18 10:00:00 25.4 5 Norte 13 Nordeste 0 -- -- 41
2019-06-18 09:00:00 22.4 3 Este 9 Nordeste 0 -- -- 46
2019-06-18 08:00:00 19.2 7 Sudoeste 12 Oeste 0 -- -- 52
2019-06-18 07:00:00 17 4 Sudoeste 7 Sudoeste 0 -- -- 56
2019-06-18 06:00:00 17.9 3 Noroeste 17 Nordeste 0 -- -- 55
2019-06-18 05:00:00 20.7 13 Nordeste 19 Este 0 -- -- 42
2019-06-18 04:00:00 21.9 12 Este 28 Sudeste 0 -- -- 33
2019-06-18 03:00:00 22.8 20 Sudeste 28 Sudeste 0 -- -- 32
2019-06-18 02:00:00 23.6 21 Sudeste 36 Sudeste 0 -- -- 31
2019-06-18 01:00:00 24.8 24 Sur 40 Sur 0 -- -- 33
2019-06-18 00:00:00 26 28 Sur 45 Sur 0 -- -- 31
2019-06-17 23:00:00 26.1 26 Sur 43 Sudeste 0 -- -- 33
2019-06-17 22:00:00 27.4 22 Sudeste 35 Sudeste 0 -- -- 30
2019-06-17 21:00:00 29.7 22 Sudeste 36 Sudeste 0 -- -- 29
2019-06-17 20:00:00 32 23 Sudeste 39 Este 0 -- -- 30
2019-06-17 19:00:00 33.4 21 Este 37 Este 0 -- -- 27
2019-06-17 18:00:00 34.8 15 Nordeste 31 Nordeste 0 -- -- 21
2019-06-17 17:00:00 35.5 11 Nordeste 25 Nordeste 0 -- -- 21
2019-06-17 16:00:00 34.4 12 Nordeste 25 Este 0 -- -- 22
2019-06-17 15:00:00 34.1 11 Nordeste 25 Este 0 -- -- 23
2019-06-17 14:00:00 32.9 10 Nordeste 22 Nordeste 0 -- -- 28
2019-06-17 13:00:00 30.9 7 Nordeste 21 Nordeste 0 -- -- 31
2019-06-17 12:00:00 28.4 5 Nordeste 14 Nordeste 0 -- -- 38
2019-06-17 11:00:00 26.7 4 Noroeste 13 Nordeste 0 -- -- 41
2019-06-17 10:00:00 24 4 Norte 9 Nordeste 0 -- -- 46
2019-06-17 09:00:00 21.5 4 Nordeste 9 Este 0 -- -- 52
2019-06-17 08:00:00 17.4 3 Sudoeste 7 Sudoeste 0 -- -- 63
2019-06-17 07:00:00 14.1 5 Sudoeste 10 Oeste 0 -- -- 72
2019-06-17 06:00:00 14.8 6 Sudoeste 9 Sudoeste 0 -- -- 69
2019-06-17 05:00:00 15.9 6 Sudoeste 10 Sudoeste 0 -- -- 66
2019-06-17 04:00:00 16.7 0 Calma 5 Oeste 0 -- -- 62
2019-06-17 03:00:00 17.5 3 Noroeste 10 Sudoeste 0 -- -- 59
2019-06-17 02:00:00 18.1 3 Oeste 7 Sudoeste 0 -- -- 58
2019-06-17 01:00:00 19.7 0 Calma 11 Nordeste 0 -- -- 54
2019-06-17 00:00:00 21 8 Nordeste 14 Nordeste 0 -- -- 50
2019-06-16 23:00:00 22.8 8 Nordeste 16 Este 0 -- -- 44
2019-06-16 22:00:00 25.7 12 Sudeste 22 Sudeste 0 -- -- 38
2019-06-16 21:00:00 27.1 14 Sudeste 30 Este 0 -- -- 33
2019-06-16 20:00:00 28.7 18 Este 31 Este 0 -- -- 34
2019-06-16 19:00:00 30.1 20 Este 32 Nordeste 0 -- -- 26
2019-06-16 18:00:00 32.2 11 Nordeste 28 Nordeste 0 -- -- 24
2019-06-16 17:00:00 32.8 7 Norte 24 Norte 0 -- -- 23
2019-06-16 16:00:00 32.4 9 Nordeste 24 Norte 0 -- -- 25
2019-06-16 15:00:00 31.6 8 Norte 23 Nordeste 0 -- -- 26
2019-06-16 14:00:00 28.7 11 Este 23 Este 0 -- -- 28
2019-06-16 13:00:00 26.9 8 Nordeste 22 Este 0 -- -- 31
2019-06-16 12:00:00 25.7 5 Norte 12 Nordeste 0 -- -- 34
2019-06-16 11:00:00 23.1 5 Noroeste 12 Norte 0 -- -- 37
2019-06-16 10:00:00 21.2 3 Noroeste 8 Noroeste 0 -- -- 42
2019-06-16 09:00:00 18.8 2 Norte 6 Este 0 -- -- 49
2019-06-16 08:00:00 15.6 2 Sudeste 5 Este 0 -- -- 56
2019-06-16 07:00:00 13.1 0 Calma 6 Este 0 -- -- 60
2019-06-16 06:00:00 13.9 3 Este 8 Este 0 -- -- 58
2019-06-16 05:00:00 14.5 0 Calma 5 Este 0 -- -- 55
2019-06-16 04:00:00 15.6 2 Norte 8 Noroeste 0 -- -- 52
2019-06-16 03:00:00 17 3 Noroeste 13 Oeste 0 -- -- 47
2019-06-16 02:00:00 17.7 6 Sudoeste 15 Oeste 0 -- -- 46
2019-06-16 01:00:00 18.3 8 Oeste 20 Oeste 0 -- -- 45
2019-06-16 00:00:00 19.4 10 Oeste 21 Noroeste 0 -- -- 43
2019-06-15 23:00:00 20.8 6 Noroeste 16 Noroeste 0 -- -- 39
2019-06-15 22:00:00 22.4 4 Noroeste 18 Norte 0 -- -- 36
2019-06-15 21:00:00 24.7 9 Norte 19 Noroeste 0 -- -- 33
2019-06-15 20:00:00 26.7 5 Norte 20 Norte 0 -- -- 29
2019-06-15 19:00:00 28.4 6 Norte 28 Norte 0 -- -- 27
2019-06-15 18:00:00 29.7 9 Norte 28 Noroeste 0 -- -- 26
2019-06-15 17:00:00 30.4 8 Norte 25 Nordeste 0 -- -- 24
2019-06-15 16:00:00 29.2 7 Norte 29 Nordeste 0 -- -- 24
2019-06-15 15:00:00 30.2 8 Noroeste 26 Norte 0 -- -- 24
2019-06-15 14:00:00 28.5 7 Noroeste 23 Noroeste 0 -- -- 28
2019-06-15 13:00:00 27.6 5 Oeste 22 Noroeste 0 -- -- 32
2019-06-15 12:00:00 25.5 5 Noroeste 25 Oeste 0 -- -- 36
2019-06-15 11:00:00 22.7 11 Oeste 24 Norte 0 -- -- 42
2019-06-15 10:00:00 20.6 6 Noroeste 18 Norte 0 -- -- 51
2019-06-15 09:00:00 18.5 7 Noroeste 22 Oeste 0 -- -- 57
2019-06-15 08:00:00 16.1 14 Oeste 28 Oeste 0 -- -- 64
2019-06-15 07:00:00 14.1 18 Oeste 26 Oeste 0 -- -- 72
2019-06-15 06:00:00 13.9 9 Sudoeste 22 Sudoeste 0 -- -- 75
2019-06-15 05:00:00 14.6 14 Sudoeste 26 Oeste 0 -- -- 70
2019-06-15 04:00:00 15.5 16 Oeste 27 Oeste 0 -- -- 67
2019-06-15 03:00:00 16.4 5 Noroeste 14 Noroeste 0 -- -- 62
2019-06-15 02:00:00 18.5 5 Norte 18 Oeste 0 -- -- 40
2019-06-15 01:00:00 20.5 10 Sudoeste 20 Sudoeste 0 -- -- 32
2019-06-15 00:00:00 21.7 13 Sudoeste 19 Oeste 0 -- -- 40
2019-06-14 23:00:00 23.9 10 Sur 20 Sudoeste 0 -- -- 45
2019-06-14 22:00:00 25.3 5 Nordeste 20 Nordeste 0 -- -- 39
2019-06-14 21:00:00 27.4 14 Nordeste 25 Nordeste 0 -- -- 36
2019-06-14 20:00:00 28.4 14 Nordeste 28 Este 0 -- -- 34
2019-06-14 19:00:00 29.4 14 Nordeste 28 Este 0 -- -- 34
2019-06-14 18:00:00 30.4 14 Este 27 Este 0 -- -- 33
2019-06-14 17:00:00 29.7 15 Este 24 Este 0 -- -- 34
2019-06-14 16:00:00 29.5 6 Norte 21 Nordeste 0 -- -- 35
2019-06-14 15:00:00 28.9 5 Norte 15 Norte 0 -- -- 36
2019-06-14 14:00:00 26.5 4 Norte 14 Noroeste 0 -- -- 38
2019-06-14 13:00:00 25.6 5 Norte 15 Noroeste 0 -- -- 35
2019-06-14 12:00:00 23.3 5 Noroeste 17 Noroeste 0 -- -- 40
2019-06-14 11:00:00 21.4 7 Noroeste 21 Oeste 0 -- -- 41
2019-06-14 10:00:00 20.5 4 Noroeste 14 Oeste 0 -- -- 44
2019-06-14 09:00:00 16 5 Oeste 13 Sudoeste 0 -- -- 53
2019-06-14 08:00:00 14.6 7 Sudoeste 14 Sudoeste 0 -- -- 51
2019-06-14 07:00:00 14.7 7 Sudoeste 14 Sudoeste 0 -- -- 41
2019-06-14 06:00:00 14.3 9 Sudoeste 17 Oeste 0 -- -- 39
2019-06-14 05:00:00 14 7 Sudoeste 15 Sudoeste 0 -- -- 39
2019-06-14 04:00:00 14.8 4 Sur 7 Oeste 0 -- -- 37
2019-06-14 03:00:00 15.8 3 Sudoeste 10 Este 0 -- -- 34
2019-06-14 02:00:00 16.5 2 Sur 18 Este 0 -- -- 31
2019-06-14 01:00:00 17.1 14 Este 25 Este 0 -- -- 30
2019-06-14 00:00:00 17.5 18 Este 26 Este 0 -- -- 35
2019-06-13 23:00:00 18.5 13 Este 24 Este 0 -- -- 39
2019-06-13 22:00:00 19.9 20 Este 34 Este 0 -- -- 46
2019-06-13 21:00:00 22.3 18 Nordeste 37 Este 0 -- -- 45
2019-06-13 20:00:00 25.1 27 Este 40 Este 0 -- -- 44
2019-06-13 19:00:00 24.6 27 Este 40 Este 0 -- -- 47
2019-06-13 18:00:00 26.8 24 Este 46 Nordeste 0 -- -- 41
2019-06-13 17:00:00 27.5 37 Nordeste 57 Nordeste 0 -- -- 41
2019-06-13 16:00:00 27.8 37 Nordeste 51 Nordeste 0 -- -- 41
2019-06-13 15:00:00 27.1 35 Nordeste 48 Nordeste 0 -- -- 40
2019-06-13 14:00:00 27.4 24 Nordeste 44 Nordeste 0 -- -- 42
2019-06-13 13:00:00 26.4 21 Este 40 Nordeste 0 -- -- 38
2019-06-13 12:00:00 24.1 22 Nordeste 34 Nordeste 0 -- -- 49
2019-06-13 11:00:00 23.3 4 Nordeste 12 Este 0 -- -- 48
2019-06-13 10:00:00 19.3 4 Nordeste 9 Nordeste 0 -- -- 52
2019-06-13 09:00:00 16.4 3 Noroeste 10 Sudoeste 0 -- -- 56
2019-06-13 08:00:00 12 8 Sudoeste 12 Oeste 0 -- -- 62
2019-06-13 07:00:00 10.1 6 Sudoeste 9 Sudoeste 0 -- -- 64
2019-06-13 06:00:00 11.1 3 Sudoeste 10 Este 0 -- -- 62
2019-06-13 05:00:00 12 7 Este 15 Este 0 -- -- 65
2019-06-13 04:00:00 12.2 9 Nordeste 13 Este 0 -- -- 62
2019-06-13 03:00:00 13.7 12 Este 21 Nordeste 0 -- -- 45
2019-06-13 02:00:00 14.5 13 Nordeste 18 Sudeste 0 -- -- 43
2019-06-13 01:00:00 15.8 16 Sudeste 32 Sudeste 0 -- -- 42
2019-06-13 00:00:00 16.6 21 Sudeste 35 Sudeste 0 -- -- 44
2019-06-12 23:00:00 18.1 21 Sudeste 36 Sudeste 0 -- -- 46
2019-06-12 22:00:00 19.6 15 Sudeste 31 Sudeste 0 -- -- 43
2019-06-12 21:00:00 21.4 22 Este 38 Este 0 -- -- 40
2019-06-12 20:00:00 22.6 25 Este 43 Este 0 -- -- 36
2019-06-12 19:00:00 23.8 19 Este 36 Este 0 -- -- 26
2019-06-12 18:00:00 24.5 20 Este 32 Este 0 -- -- 26
2019-06-12 17:00:00 25.2 5 Nordeste 26 Este 0 -- -- 26
2019-06-12 16:00:00 25.7 10 Nordeste 28 Nordeste 0 -- -- 25
2019-06-12 15:00:00 25.2 6 Norte 24 Nordeste 0 -- -- 28
2019-06-12 14:00:00 22.9 9 Este 24 Este 0 -- -- 30
2019-06-12 13:00:00 21.1 12 Este 21 Nordeste 0 -- -- 33
2019-06-12 12:00:00 19.5 6 Este 15 Nordeste 0 -- -- 36
2019-06-12 11:00:00 18 5 Nordeste 11 Nordeste 0 -- -- 41
2019-06-12 10:00:00 17.1 4 Noroeste 12 Sudoeste 0 -- -- 45
2019-06-12 09:00:00 15.1 6 Sudoeste 19 Sudoeste 0 -- -- 50
2019-06-12 08:00:00 10.7 12 Sudoeste 17 Sudoeste 0 -- -- 65
2019-06-12 07:00:00 8.3 11 Sudoeste 17 Sudoeste 0 -- -- 73
2019-06-12 06:00:00 9 12 Sudoeste 15 Sudoeste 0 -- -- 69
2019-06-12 05:00:00 9.2 8 Sudoeste 15 Sudoeste 0 -- -- 69
2019-06-12 04:00:00 10.1 8 Sudoeste 15 Oeste 0 -- -- 68
2019-06-12 03:00:00 10.1 10 Oeste 23 Oeste 0 -- -- 67
2019-06-12 02:00:00 10.9 13 Oeste 21 Oeste 0 -- -- 65
2019-06-12 01:00:00 11.7 14 Oeste 25 Oeste 0 -- -- 61
2019-06-12 00:00:00 12.3 14 Oeste 21 Oeste 0 -- -- 58
2019-06-11 23:00:00 13.1 13 Oeste 28 Oeste 0 -- -- 55
2019-06-11 22:00:00 14.5 7 Noroeste 24 Noroeste 0 -- -- 50
2019-06-11 21:00:00 16.7 8 Noroeste 33 Norte 0 -- -- 44
2019-06-11 20:00:00 18.6 8 Noroeste 31 Norte 0 -- -- 38
2019-06-11 19:00:00 19.6 10 Noroeste 31 Noroeste 0 -- -- 36
2019-06-11 18:00:00 20.1 7 Noroeste 28 Norte 0 -- -- 36
2019-06-11 17:00:00 21.8 12 Oeste 35 Oeste 0 -- -- 37
2019-06-11 16:00:00 20.4 12 Oeste 30 Oeste 0 -- -- 45
2019-06-11 15:00:00 16 17 Oeste 31 Oeste 0 -- -- 60
2019-06-11 14:00:00 14.6 14 Oeste 27 Oeste 0.2 -- -- 69
2019-06-11 13:00:00 13.5 9 Noroeste 25 Oeste 0 -- -- 72
2019-06-11 12:00:00 12.7 9 Noroeste 25 Oeste 0 -- -- 78
2019-06-11 11:00:00 12.5 7 Noroeste 27 Noroeste 0 -- -- 72
2019-06-11 10:00:00 13 10 Noroeste 27 Oeste 0 -- -- 66
2019-06-11 09:00:00 12.7 7 Noroeste 23 Noroeste 0 -- -- 65
2019-06-11 08:00:00 12.2 7 Noroeste 20 Oeste 0.2 -- -- 70
2019-06-11 07:00:00 11.6 6 Oeste 21 Oeste 0 -- -- 78
2019-06-11 06:00:00 12.2 9 Oeste 18 Oeste 0 -- -- 66
2019-06-11 05:00:00 12.8 6 Noroeste 24 Noroeste 0 -- -- 63
2019-06-11 04:00:00 14.4 8 Noroeste 26 Oeste 0 -- -- 52
2019-06-11 03:00:00 14.7 15 Oeste 27 Oeste 0 -- -- 46
2019-06-11 02:00:00 15 13 Oeste 27 Oeste 0 -- -- 45
2019-06-11 01:00:00 15.1 17 Oeste 31 Oeste 0 -- -- 48
2019-06-11 00:00:00 15.5 15 Oeste 27 Oeste 0 -- -- 46
2019-06-10 23:00:00 16.1 12 Oeste 29 Oeste 0 -- -- 48
2019-06-10 22:00:00 17.3 8 Noroeste 23 Noroeste 0 -- -- 46
2019-06-10 21:00:00 18.6 11 Noroeste 26 Noroeste 0 -- -- 42
2019-06-10 20:00:00 20.6 8 Noroeste 28 Noroeste 0 -- -- 39
2019-06-10 19:00:00 24 9 Noroeste 35 Noroeste 0 -- -- 35
2019-06-10 18:00:00 25.5 10 Noroeste 35 Norte 0 -- -- 33
2019-06-10 17:00:00 26.7 14 Noroeste 40 Noroeste 0 -- -- 31
2019-06-10 16:00:00 26.5 15 Norte 37 Noroeste 0 -- -- 33
2019-06-10 15:00:00 26 11 Noroeste 32 Oeste 0 -- -- 33
2019-06-10 14:00:00 25.4 9 Noroeste 31 Oeste 0 -- -- 35
2019-06-10 13:00:00 24 10 Noroeste 38 Noroeste 0 -- -- 38
2019-06-10 12:00:00 22.7 9 Noroeste 35 Noroeste 0 -- -- 42
2019-06-10 11:00:00 20.6 23 Oeste 48 Oeste 0 -- -- 47
2019-06-10 10:00:00 19.9 16 Oeste 33 Oeste 0 -- -- 49
2019-06-10 09:00:00 17.6 12 Noroeste 36 Oeste 0 -- -- 54
2019-06-10 08:00:00 15.4 21 Oeste 35 Oeste 0 -- -- 61
2019-06-10 07:00:00 13.3 15 Oeste 36 Oeste 0 -- -- 70
2019-06-10 06:00:00 13.8 14 Oeste 32 Oeste 0 -- -- 68
2019-06-10 05:00:00 14.7 14 Oeste 33 Noroeste 0 -- -- 66
2019-06-10 04:00:00 15 12 Noroeste 34 Oeste 0 -- -- 65
2019-06-10 03:00:00 15.9 21 Oeste 37 Oeste 0 -- -- 63
2019-06-10 02:00:00 16.6 19 Oeste 41 Oeste 0 -- -- 61
2019-06-10 01:00:00 17.9 21 Oeste 38 Oeste 0 -- -- 57
2019-06-10 00:00:00 18.8 14 Noroeste 36 Oeste 0 -- -- 54
2019-06-09 23:00:00 20.4 15 Noroeste 40 Noroeste 0 -- -- 50
2019-06-09 22:00:00 24.8 10 Noroeste 30 Noroeste 0 -- -- 42
2019-06-09 21:00:00 27.6 5 Nordeste 13 Nordeste 0 -- -- 27
2019-06-09 20:00:00 29.8 4 Norte 18 Este 0 -- -- 25
2019-06-09 19:00:00 30.4 5 Este 19 Nordeste 0 -- -- 24
2019-06-09 18:00:00 31.4 5 Este 27 Este 0 -- -- 23
2019-06-09 17:00:00 32 5 Nordeste 28 Nordeste 0 -- -- 23
2019-06-09 16:00:00 31.4 13 Nordeste 32 Nordeste 0 -- -- 24
2019-06-09 15:00:00 30.8 13 Nordeste 26 Nordeste 0 -- -- 26
2019-06-09 14:00:00 31.1 8 Norte 21 Nordeste 0 -- -- 26
2019-06-09 13:00:00 29.9 4 Noroeste 12 Noroeste 0 -- -- 27
2019-06-09 12:00:00 27.3 7 Nordeste 15 Nordeste 0 -- -- 28
2019-06-09 11:00:00 24.7 4 Norte 9 Norte 0 -- -- 33
2019-06-09 10:00:00 22.1 3 Nordeste 10 Nordeste 0 -- -- 39
2019-06-09 09:00:00 18.3 4 Oeste 9 Oeste 0 -- -- 47
2019-06-09 08:00:00 15.7 4 Sudoeste 9 Sudoeste 0 -- -- 52
2019-06-09 07:00:00 14.6 6 Sudoeste 11 Sudoeste 0 -- -- 54
2019-06-09 06:00:00 14.9 6 Sudoeste 10 Sudoeste 0 -- -- 52
2019-06-09 05:00:00 15.7 2 Sur 9 Este 0 -- -- 49
2019-06-09 04:00:00 16.4 6 Este 21 Este 0 -- -- 47
2019-06-09 03:00:00 16.9 11 Este 23 Este 0 -- -- 46
2019-06-09 02:00:00 17.4 15 Este 27 Este 0 -- -- 47
2019-06-09 01:00:00 18.3 17 Este 32 Este 0 -- -- 44
2019-06-09 00:00:00 19.3 25 Este 42 Este 0 -- -- 39
2019-06-08 23:00:00 19.7 23 Este 44 Sudeste 0 -- -- 39
2019-06-08 22:00:00 20.7 34 Sudeste 47 Sudeste 0 -- -- 36
2019-06-08 21:00:00 22.3 31 Sudeste 54 Sudeste 0 -- -- 34
2019-06-08 20:00:00 23.6 35 Sudeste 51 Sudeste 0 -- -- 33
2019-06-08 19:00:00 25.2 34 Sudeste 53 Sudeste 0 -- -- 32
2019-06-08 18:00:00 27.2 33 Sudeste 47 Sudeste 0 -- -- 31
2019-06-08 17:00:00 27.8 28 Sudeste 45 Sudeste 0 -- -- 30
2019-06-08 16:00:00 28.8 23 Sudeste 41 Sudeste 0 -- -- 30
2019-06-08 15:00:00 27.1 23 Nordeste 35 Nordeste 0 -- -- 32
2019-06-08 14:00:00 25.9 17 Este 33 Nordeste 0 -- -- 33
2019-06-08 13:00:00 22.2 12 Nordeste 24 Nordeste 0 -- -- 37
2019-06-08 12:00:00 22.6 9 Este 19 Nordeste 0 -- -- 36
2019-06-08 11:00:00 20.9 8 Nordeste 15 Nordeste 0 -- -- 38
2019-06-08 10:00:00 18.7 6 Nordeste 14 Nordeste 0 -- -- 44
2019-06-08 09:00:00 16.1 6 Nordeste 11 Nordeste 0 -- -- 50
2019-06-08 08:00:00 12.7 0 Calma 10 Sudeste 0 -- -- 54
2019-06-08 07:00:00 10.9 5 Sudeste 14 Sudeste 0 -- -- 59
2019-06-08 06:00:00 10.5 0 Calma 12 Este 0 -- -- 62
2019-06-08 05:00:00 11.4 3 Oeste 7 Noroeste 0 -- -- 58
2019-06-08 04:00:00 12.4 5 Oeste 11 Oeste 0 -- -- 51
2019-06-08 03:00:00 12.9 2 Sur 14 Oeste 0 -- -- 46
2019-06-08 02:00:00 12.9 9 Sudoeste 13 Sudoeste 0 -- -- 43
2019-06-08 01:00:00 14.1 8 Sudoeste 13 Sudoeste 0 -- -- 40
2019-06-08 00:00:00 15.2 10 Sudoeste 14 Oeste 0 -- -- 38
2019-06-07 23:00:00 17.4 6 Sudoeste 11 Sudoeste 0 -- -- 33
2019-06-07 22:00:00 19.4 0 Calma 19 Norte 0 -- -- 30
2019-06-07 21:00:00 22 5 Noroeste 31 Norte 0 -- -- 26
2019-06-07 20:00:00 24 10 Noroeste 36 Norte 0 -- -- 24
2019-06-07 19:00:00 25.2 12 Noroeste 35 Norte 0 -- -- 22
2019-06-07 18:00:00 26.5 13 Noroeste 37 Noroeste 0 -- -- 20
2019-06-07 17:00:00 26.7 16 Noroeste 44 Norte 0 -- -- 21
2019-06-07 16:00:00 27 16 Noroeste 39 Oeste 0 -- -- 21
2019-06-07 15:00:00 26.2 17 Noroeste 40 Oeste 0 -- -- 21
2019-06-07 14:00:00 25.8 20 Oeste 45 Oeste 0 -- -- 23
2019-06-07 13:00:00 24.6 16 Noroeste 40 Oeste 0 -- -- 30
2019-06-07 12:00:00 22.1 19 Oeste 42 Oeste 0 -- -- 37
2019-06-07 11:00:00 17.9 8 Noroeste 30 Noroeste 0 -- -- 45
2019-06-07 10:00:00 16.8 9 Noroeste 40 Oeste 0 -- -- 51
2019-06-07 09:00:00 16.3 13 Noroeste 39 Noroeste 0 -- -- 55
2019-06-07 08:00:00 17.3 16 Noroeste 36 Noroeste 0 -- -- 56
2019-06-07 07:00:00 16.7 11 Sudoeste 29 Sur 0 -- -- 57
2019-06-07 06:00:00 17.7 21 Sur 34 Sur 0 -- -- 57
2019-06-07 05:00:00 18.2 24 Sur 38 Sur 0 -- -- 56
2019-06-07 04:00:00 18.7 26 Sur 41 Sur 0 -- -- 56
2019-06-07 03:00:00 19 28 Sur 41 Sur 0 -- -- 55
2019-06-07 02:00:00 18.9 27 Sur 47 Sur 0 -- -- 56
2019-06-07 01:00:00 19.1 30 Sur 55 Sur 0 -- -- 55
2019-06-07 00:00:00 19.8 29 Sudoeste 57 Sur 0 -- -- 49
2019-06-06 23:00:00 20.7 38 Sur 60 Sur 0 -- -- 38
2019-06-06 22:00:00 21.8 37 Sur 63 Sur 0 -- -- 35
2019-06-06 21:00:00 23.3 37 Sur 58 Sur 0 -- -- 36
2019-06-06 20:00:00 24.7 36 Sudeste 62 Sur 0 -- -- 34
2019-06-06 19:00:00 25.3 42 Sudeste 72 Sudeste 0 -- -- 35
2019-06-06 18:00:00 25.9 34 Sur 51 Sudeste 0 -- -- 33
2019-06-06 17:00:00 28 21 Sur 44 Este 0 -- -- 27
2019-06-06 16:00:00 26.7 31 Este 51 Sudeste 0 -- -- 35
2019-06-06 15:00:00 26.9 23 Este 42 Este 0 -- -- 32
2019-06-06 14:00:00 24.9 22 Este 33 Este 0 -- -- 35
2019-06-06 13:00:00 22.7 15 Nordeste 24 Este 0 -- -- 38
2019-06-06 12:00:00 20.7 14 Nordeste 24 Nordeste 0 -- -- 42
2019-06-06 11:00:00 19.6 9 Nordeste 17 Nordeste 0 -- -- 43
2019-06-06 10:00:00 18.2 6 Nordeste 15 Nordeste 0 -- -- 48
2019-06-06 09:00:00 15.9 6 Nordeste 11 Norte 0 -- -- 54
2019-06-06 08:00:00 12.5 0 Calma 4 Sudoeste 0 -- -- 66
2019-06-06 07:00:00 10.1 0 Calma 6 Sudoeste 0 -- -- 73
2019-06-06 06:00:00 10.3 4 Sudoeste 14 Oeste 0 -- -- 73
2019-06-06 05:00:00 11.5 8 Sudoeste 15 Oeste 0 -- -- 69
2019-06-06 04:00:00 12.7 9 Oeste 16 Oeste 0 -- -- 62
2019-06-06 03:00:00 13.4 9 Sudoeste 15 Sudoeste 0 -- -- 63
2019-06-06 02:00:00 13.6 12 Sudoeste 21 Oeste 0 -- -- 64
2019-06-06 01:00:00 13.4 13 Oeste 19 Oeste 0 -- -- 64
2019-06-06 00:00:00 13.9 8 Sudoeste 17 Oeste 0 -- -- 61
2019-06-05 23:00:00 14.7 8 Sudoeste 25 Oeste 0 -- -- 57
2019-06-05 22:00:00 16.1 10 Noroeste 28 Norte 0 -- -- 53
2019-06-05 21:00:00 18 9 Noroeste 30 Noroeste 0 -- -- 48
2019-06-05 20:00:00 19.8 9 Noroeste 31 Noroeste 0 -- -- 41
2019-06-05 19:00:00 21.5 11 Noroeste 36 Oeste 0 -- -- 39
2019-06-05 18:00:00 22.3 10 Noroeste 40 Oeste 0 -- -- 39
2019-06-05 17:00:00 23 13 Noroeste 40 Oeste 0 -- -- 37
2019-06-05 16:00:00 22 18 Noroeste 47 Oeste 0 -- -- 39
2019-06-05 15:00:00 20.7 17 Noroeste 53 Noroeste 0 -- -- 44
2019-06-05 14:00:00 18.9 22 Noroeste 50 Oeste 0 -- -- 56
2019-06-05 13:00:00 17.5 19 Noroeste 47 Noroeste 0 -- -- 55
2019-06-05 12:00:00 18.4 12 Noroeste 36 Norte 0 -- -- 57
2019-06-05 11:00:00 18.6 11 Noroeste 31 Noroeste 0 -- -- 58
2019-06-05 10:00:00 18.4 11 Noroeste 25 Noroeste 0 -- -- 58
2019-06-05 09:00:00 17.2 3 Noroeste 9 Noroeste 0 -- -- 61
2019-06-05 08:00:00 15.6 3 Noroeste 11 Oeste 0 -- -- 64
2019-06-05 07:00:00 13.8 4 Noroeste 19 Oeste 0 -- -- 70
2019-06-05 06:00:00 14.4 10 Oeste 20 Oeste 0 -- -- 69
2019-06-05 05:00:00 14.8 6 Oeste 20 Oeste 0 -- -- 69
2019-06-05 04:00:00 15.7 5 Noroeste 17 Oeste 0 -- -- 69
2019-06-05 03:00:00 16.7 6 Noroeste 17 Noroeste 0 -- -- 68
2019-06-05 02:00:00 18.1 6 Noroeste 24 Noroeste 0 -- -- 66
2019-06-05 01:00:00 19.7 8 Noroeste 25 Oeste 0 -- -- 61
2019-06-05 00:00:00 21.2 9 Oeste 38 Oeste 0 -- -- 61
2019-06-04 23:00:00 24.7 8 Noroeste 20 Oeste 0 -- -- 51
2019-06-04 22:00:00 26.9 3 Noroeste 27 Sudoeste 0 -- -- 46
2019-06-04 21:00:00 28.6 18 Sudoeste 33 Sur 0 -- -- 43
2019-06-04 20:00:00 29.5 8 Norte 31 Nordeste 0 -- -- 41
2019-06-04 19:00:00 29.1 27 Nordeste 42 Nordeste 0 -- -- 43
2019-06-04 18:00:00 30.5 29 Nordeste 44 Nordeste 0 -- -- 37
2019-06-04 17:00:00 31.9 29 Este 50 Este 0 -- -- 29
2019-06-04 16:00:00 32.4 29 Este 43 Nordeste 0 -- -- 30
2019-06-04 15:00:00 32 20 Nordeste 37 Nordeste 0 -- -- 29
2019-06-04 14:00:00 30.9 17 Nordeste 29 Nordeste 0 -- -- 31
2019-06-04 13:00:00 29 13 Nordeste 24 Este 0 -- -- 33
2019-06-04 12:00:00 26.8 10 Nordeste 19 Este 0 -- -- 37
2019-06-04 11:00:00 24.4 7 Este 15 Nordeste 0 -- -- 41
2019-06-04 10:00:00 22.3 4 Norte -- -- 0 -- -- 46
2019-06-04 09:00:00 19.3 3 Oeste 10 Sudoeste 0 -- -- 55
2019-06-04 08:00:00 15.3 8 Sudoeste 10 Sudoeste 0 -- -- 69
2019-06-04 07:00:00 13.8 5 Sudoeste 12 Sudoeste 0 -- -- 73
2019-06-04 06:00:00 14.4 5 Sudoeste 9 Sudoeste 0 -- -- 70
2019-06-04 05:00:00 15.3 4 Sudoeste 8 Sudoeste 0 -- -- 67
2019-06-04 04:00:00 15.9 4 Sudoeste 7 Sudoeste 0 -- -- 65
2019-06-04 03:00:00 16.4 4 Sudoeste 7 Sudoeste 0 -- -- 62
2019-06-04 02:00:00 17.5 0 Calma 10 Oeste 0 -- -- 58
2019-06-04 01:00:00 18.6 5 Sudoeste 10 Sudoeste 0 -- -- 56
2019-06-04 00:00:00 20.3 4 Nordeste 22 Nordeste 0 -- -- 52
2019-06-03 23:00:00 23.6 12 Nordeste 28 Este 0 -- -- 42
2019-06-03 22:00:00 25.4 16 Nordeste 33 Sudeste 0 -- -- 38
2019-06-03 21:00:00 29.2 26 Sudeste 37 Este 0 -- -- 31
2019-06-03 20:00:00 31.3 21 Sudeste 32 Sudeste 0 -- -- 29
2019-06-03 19:00:00 33.4 18 Sudeste 30 Sudeste 0 -- -- 24
2019-06-03 18:00:00 33.3 22 Sudeste 35 Este 0 -- -- 25
2019-06-03 17:00:00 32.3 22 Sudeste 38 Este 0 -- -- 26
2019-06-03 16:00:00 31.4 8 Este 22 Nordeste 0 -- -- 26
2019-06-03 15:00:00 31.9 9 Nordeste 25 Nordeste 0 -- -- 27
2019-06-03 14:00:00 30.1 11 Nordeste 21 Nordeste 0 -- -- 28
2019-06-03 13:00:00 27.9 6 Nordeste 16 Nordeste 0 -- -- 33
2019-06-03 12:00:00 25.3 4 Norte 9 Norte 0 -- -- 40
2019-06-03 11:00:00 23.6 4 Norte 10 Norte 0 -- -- 43
2019-06-03 10:00:00 22.1 5 Noroeste 13 Norte 0 -- -- 47
2019-06-03 09:00:00 19.7 2 Noroeste 5 Norte 0 -- -- 53
2019-06-03 08:00:00 16.5 4 Sudoeste 8 Oeste 0 -- -- 62
2019-06-03 07:00:00 15.1 6 Sudoeste 9 Oeste 0 -- -- 65
2019-06-03 06:00:00 15.5 5 Sudoeste 8 Sudoeste 0 -- -- 63
2019-06-03 05:00:00 16.4 4 Sudoeste 6 Sudoeste 0 -- -- 60
2019-06-03 04:00:00 17.5 0 Calma 9 Este 0 -- -- 55
2019-06-03 03:00:00 18.6 5 Este 15 Este 0 -- -- 53
2019-06-03 02:00:00 18.8 4 Noroeste 20 Norte 0 -- -- 54
2019-06-03 01:00:00 20 10 Nordeste 20 Este 0 -- -- 48
2019-06-03 00:00:00 21 14 Nordeste 21 Nordeste 0 -- -- 44
2019-06-02 23:00:00 23.6 14 Nordeste 22 Nordeste 0 -- -- 37
2019-06-02 22:00:00 27.9 13 Sudeste 21 Sudeste 0 -- -- 29
2019-06-02 21:00:00 30.5 14 Sudeste 30 Nordeste 0 -- -- 26
2019-06-02 20:00:00 31.3 22 Nordeste 35 Nordeste 0 -- -- 27
2019-06-02 19:00:00 32.6 20 Este 32 Nordeste 0 -- -- 25
2019-06-02 18:00:00 33.8 14 Nordeste 31 Nordeste 0 -- -- 22
2019-06-02 17:00:00 33.6 19 Este 31 Nordeste 0 -- -- 23
2019-06-02 16:00:00 33.9 12 Nordeste 22 Este 0 -- -- 24
2019-06-02 15:00:00 33.2 9 Nordeste 19 Este 0 -- -- 25
2019-06-02 14:00:00 31.5 8 Nordeste 19 Nordeste 0 -- -- 27
2019-06-02 13:00:00 29.4 6 Este 16 Nordeste 0 -- -- 31
2019-06-02 12:00:00 27.5 5 Este 12 Nordeste 0 -- -- 34
2019-06-02 11:00:00 24.7 3 Norte 9 Norte 0 -- -- 39
2019-06-02 10:00:00 22.7 3 Norte 11 Noroeste 0 -- -- 43
2019-06-02 09:00:00 19.6 2 Oeste 7 Oeste 0 -- -- 47
2019-06-02 08:00:00 16.2 5 Sudoeste 10 Sudoeste 0 -- -- 56
2019-06-02 07:00:00 13.4 6 Sudoeste 9 Oeste 0 -- -- 66
2019-06-02 06:00:00 14.5 5 Sudoeste 9 Sudoeste 0 -- -- 60
2019-06-02 05:00:00 15 6 Sudoeste 10 Sudoeste 0 -- -- 59
2019-06-02 04:00:00 15.5 6 Oeste 11 Oeste 0 -- -- 58
2019-06-02 03:00:00 16.7 5 Sudoeste 9 Oeste 0 -- -- 58
2019-06-02 02:00:00 17.7 6 Sudoeste 10 Oeste 0 -- -- 55
2019-06-02 01:00:00 19.9 5 Nordeste 9 Nordeste 0 -- -- 48
2019-06-02 00:00:00 22.1 4 Nordeste 18 Sur 0 -- -- 44
2019-06-01 23:00:00 25 14 Sur 31 Sur 0 -- -- 37
2019-06-01 22:00:00 25.9 16 Sur 30 Sur 0 -- -- 36
2019-06-01 21:00:00 28.5 21 Este 32 Este 0 -- -- 34
2019-06-01 20:00:00 29.8 22 Este 36 Este 0 -- -- 28
2019-06-01 19:00:00 31 21 Nordeste 32 Este 0 -- -- 26
2019-06-01 18:00:00 32.1 17 Este 30 Este 0 -- -- 23
2019-06-01 17:00:00 33.2 14 Nordeste 30 Nordeste 0 -- -- 23
2019-06-01 16:00:00 32.8 9 Nordeste 25 Nordeste 0 -- -- 27
2019-06-01 15:00:00 31.6 8 Nordeste 22 Nordeste 0 -- -- 31
2019-06-01 14:00:00 30.2 8 Nordeste 22 Nordeste 0 -- -- 34
2019-06-01 13:00:00 28.7 5 Nordeste 13 Nordeste 0 -- -- 36
2019-06-01 12:00:00 26.2 5 Norte 12 Nordeste 0 -- -- 42
2019-06-01 11:00:00 23.5 3 Nordeste 8 Norte 0 -- -- 48
2019-06-01 10:00:00 21.4 3 Noroeste 8 Norte 0 -- -- 51
2019-06-01 09:00:00 19.1 3 Noroeste 9 Norte 0 -- -- 57
2019-06-01 08:00:00 15.7 4 Sudoeste 9 Oeste 0 -- -- 67
2019-06-01 07:00:00 13.2 7 Sudoeste 12 Sudoeste 0 -- -- 73
2019-06-01 06:00:00 13.6 5 Sudoeste 11 Sudoeste 0 -- -- 71
2019-06-01 05:00:00 14.5 5 Oeste 11 Oeste 0 -- -- 68
2019-06-01 04:00:00 14.6 5 Sudoeste 8 Sudoeste 0 -- -- 68
2019-06-01 03:00:00 15.7 5 Oeste 8 Oeste 0 -- -- 65
2019-06-01 02:00:00 16.9 5 Sudoeste 8 Sudoeste 0 -- -- 62
2019-06-01 01:00:00 18.3 3 Sudoeste 10 Este 0 -- -- 59
2019-06-01 00:00:00 20.1 9 Nordeste 19 Este 0 -- -- 54
2019-05-31 23:00:00 21.7 13 Nordeste 18 Nordeste 0 -- -- 50
2019-05-31 22:00:00 24.6 9 Este 22 Este 0 -- -- 44
2019-05-31 21:00:00 27 18 Este 26 Este 0 -- -- 38
2019-05-31 20:00:00 28.8 3 Nordeste 14 Nordeste 0 -- -- 25
2019-05-31 19:00:00 30.1 5 Norte 15 Nordeste 0 -- -- 24
2019-05-31 18:00:00 31.1 9 Norte 18 Nordeste 0 -- -- 25
2019-05-31 17:00:00 31 5 Nordeste 20 Nordeste 0 -- -- 29
2019-05-31 16:00:00 30.6 7 Norte 16 Norte 0 -- -- 30
2019-05-31 15:00:00 29.8 5 Noroeste 14 Norte 0 -- -- 32
2019-05-31 14:00:00 28.1 6 Noroeste 14 Noroeste 0 -- -- 37
2019-05-31 13:00:00 26.9 5 Noroeste 14 Noroeste 0 -- -- 40
2019-05-31 12:00:00 24.8 5 Norte 15 Sur 0 -- -- 44
2019-05-31 11:00:00 22.5 3 Norte 14 Nordeste 0 -- -- 50
2019-05-31 10:00:00 20.9 4 Norte 10 Nordeste 0 -- -- 54
2019-05-31 09:00:00 18.5 3 Noroeste 6 Oeste 0 -- -- 59
2019-05-31 08:00:00 15.2 2 Oeste 9 Sudoeste 0 -- -- 62
2019-05-31 07:00:00 12.6 9 Sudoeste 14 Oeste 0 -- -- 68
2019-05-31 06:00:00 13.6 5 Sudoeste 9 Sudoeste 0 -- -- 64
2019-05-31 05:00:00 13.4 4 Sudoeste 6 Oeste 0 -- -- 68
2019-05-31 04:00:00 15 3 Sudeste 4 Sur 0 -- -- 63
2019-05-31 03:00:00 16.4 3 Este 5 Este 0 -- -- 58
2019-05-31 02:00:00 17.1 0 Calma 3 Este 0 -- -- 54
2019-05-31 01:00:00 18.6 0 Calma 8 Este 0 -- -- 48
2019-05-31 00:00:00 19.2 3 Este 12 Sudoeste 0 -- -- 44
2019-05-30 23:00:00 20.1 6 Sudoeste 17 Sudoeste 0 -- -- 40
2019-05-30 22:00:00 23.7 0 Calma 6 Noroeste 0 -- -- 34
2019-05-30 21:00:00 25.9 2 Noroeste 13 Noroeste 0 -- -- 30
2019-05-30 20:00:00 27.2 5 Norte 12 Noroeste 0 -- -- 28
2019-05-30 19:00:00 28.2 4 Norte 15 Norte 0 -- -- 28
2019-05-30 18:00:00 29.3 6 Norte 21 Norte 0 -- -- 28
2019-05-30 17:00:00 29.6 6 Noroeste 19 Norte 0 -- -- 28
2019-05-30 16:00:00 29.1 6 Norte 23 Norte 0 -- -- 30
2019-05-30 15:00:00 27.7 6 Noroeste 21 Noroeste 0 -- -- 31
2019-05-30 14:00:00 27 6 Noroeste 32 Norte 0 -- -- 33
2019-05-30 13:00:00 25.5 10 Oeste 24 Noroeste 0 -- -- 35
2019-05-30 12:00:00 23.6 6 Noroeste 23 Noroeste 0 -- -- 38
2019-05-30 11:00:00 21.5 9 Noroeste 22 Oeste 0 -- -- 42
2019-05-30 10:00:00 19.7 7 Noroeste 20 Noroeste 0 -- -- 49
2019-05-30 09:00:00 17.4 4 Noroeste 13 Oeste 0 -- -- 54
2019-05-30 08:00:00 13.6 8 Sudoeste 13 Sudoeste 0 -- -- 63
2019-05-30 07:00:00 11 10 Sudoeste 15 Sudoeste 0 -- -- 71
2019-05-30 06:00:00 11.4 11 Sudoeste 15 Sudoeste 0 -- -- 70
2019-05-30 05:00:00 12.5 10 Sudoeste 15 Sudoeste 0 -- -- 66
2019-05-30 04:00:00 13 11 Sudoeste 18 Sudoeste 0 -- -- 65
2019-05-30 03:00:00 13.1 9 Oeste 17 Oeste 0 -- -- 64
2019-05-30 02:00:00 14 11 Oeste 25 Oeste 0 -- -- 60
2019-05-30 01:00:00 14.9 15 Oeste 30 Oeste 0 -- -- 57
2019-05-30 00:00:00 15.6 12 Oeste 29 Oeste 0 -- -- 55
2019-05-29 23:00:00 16.4 11 Noroeste 35 Oeste 0 -- -- 52
2019-05-29 22:00:00 17.4 14 Noroeste 40 Noroeste 0 -- -- 48
2019-05-29 21:00:00 19 11 Noroeste 35 Noroeste 0 -- -- 45
2019-05-29 20:00:00 20.7 13 Noroeste 38 Noroeste 0 -- -- 40
2019-05-29 19:00:00 22 13 Noroeste 40 Noroeste 0 -- -- 36
2019-05-29 18:00:00 23 13 Noroeste 44 Norte 0 -- -- 34
2019-05-29 17:00:00 23.8 15 Noroeste 40 Oeste 0 -- -- 33
2019-05-29 16:00:00 23.6 15 Noroeste 42 Noroeste 0 -- -- 33
2019-05-29 15:00:00 22.5 14 Noroeste 41 Norte 0 -- -- 35
2019-05-29 14:00:00 21.8 13 Noroeste 42 Oeste 0 -- -- 36
2019-05-29 13:00:00 20.4 13 Noroeste 41 Noroeste 0 -- -- 43
2019-05-29 12:00:00 19.4 15 Noroeste 53 Norte 0 -- -- 45
2019-05-29 11:00:00 17.9 13 Noroeste 46 Norte 0 -- -- 48
2019-05-29 10:00:00 16.6 11 Noroeste 41 Noroeste 0 -- -- 53
2019-05-29 09:00:00 15.2 14 Noroeste 40 Oeste 0 -- -- 58
2019-05-29 08:00:00 12.7 17 Oeste 35 Noroeste 0 -- -- 62
2019-05-29 07:00:00 11 16 Oeste 29 Oeste 0 -- -- 66
2019-05-29 06:00:00 11.2 15 Oeste 45 Oeste 0 -- -- 66
2019-05-29 05:00:00 11.5 17 Noroeste 40 Noroeste 0 -- -- 64
2019-05-29 04:00:00 11.6 17 Oeste 40 Oeste 0 -- -- 63
2019-05-29 03:00:00 12.4 15 Noroeste 52 Noroeste 0 -- -- 60
2019-05-29 02:00:00 12.4 14 Noroeste 41 Oeste 0 -- -- 60
2019-05-29 01:00:00 13 19 Noroeste 50 Oeste 0 -- -- 59
2019-05-29 00:00:00 13.6 23 Noroeste 46 Oeste 0 -- -- 57
2019-05-28 23:00:00 14.2 20 Noroeste 50 Oeste 0 -- -- 51
2019-05-28 22:00:00 15 21 Noroeste 55 Oeste 0 -- -- 47
2019-05-28 21:00:00 16.2 19 Noroeste 59 Noroeste 0 -- -- 49
2019-05-28 20:00:00 17.9 17 Noroeste 53 Noroeste 0 -- -- 48
2019-05-28 19:00:00 19.3 21 Noroeste 54 Noroeste 0 -- -- 44
2019-05-28 18:00:00 20.3 22 Noroeste 54 Noroeste 0 -- -- 41
2019-05-28 17:00:00 21.5 24 Noroeste 58 Noroeste 0 -- -- 37
2019-05-28 16:00:00 22.2 18 Noroeste 48 Noroeste 0 -- -- 37
2019-05-28 15:00:00 22.5 18 Noroeste 54 Oeste 0 -- -- 37
2019-05-28 14:00:00 21.7 17 Noroeste 44 Noroeste 0 -- -- 38
2019-05-28 13:00:00 21 16 Noroeste 50 Oeste 0 -- -- 40
2019-05-28 12:00:00 19.3 19 Noroeste 46 Noroeste 0 -- -- 43
2019-05-28 11:00:00 17.7 21 Noroeste 54 Oeste 0 -- -- 44
2019-05-28 10:00:00 15.9 23 Noroeste 49 Noroeste 0 -- -- 49
2019-05-28 09:00:00 14.8 18 Noroeste 47 Oeste 0 -- -- 53
2019-05-28 08:00:00 12.8 24 Oeste 45 Oeste 0 -- -- 58
2019-05-28 07:00:00 11.8 17 Oeste 39 Oeste 0 -- -- 62
2019-05-28 06:00:00 11.9 21 Oeste 39 Oeste 0 -- -- 61
2019-05-28 05:00:00 12.4 25 Oeste 39 Oeste 0 -- -- 63
2019-05-28 04:00:00 12.8 18 Oeste 38 Oeste 0 -- -- 63
2019-05-28 03:00:00 13.2 18 Oeste 35 Oeste 0 -- -- 61
2019-05-28 02:00:00 14.4 22 Oeste 37 Oeste 0 -- -- 59
2019-05-28 01:00:00 15.1 21 Oeste 43 Oeste 0 -- -- 58
2019-05-28 00:00:00 16.2 21 Oeste 46 Noroeste 0 -- -- 57
2019-05-27 23:00:00 17.7 22 Oeste 47 Oeste 0 -- -- 61
2019-05-27 22:00:00 18.9 14 Noroeste 39 Oeste 0 -- -- 56
2019-05-27 21:00:00 20.5 15 Noroeste 37 Oeste 0 -- -- 52
2019-05-27 20:00:00 21.6 14 Noroeste 45 Oeste 0 -- -- 49
2019-05-27 19:00:00 23.5 17 Noroeste 50 Noroeste 0 -- -- 46
2019-05-27 18:00:00 25.4 16 Noroeste 42 Norte 0 -- -- 42
2019-05-27 17:00:00 26.4 15 Noroeste 46 Noroeste 0 -- -- 40
2019-05-27 16:00:00 26.6 14 Noroeste 36 Norte 0 -- -- 40
2019-05-27 15:00:00 24.8 8 Noroeste 27 Noroeste 0 -- -- 43
2019-05-27 14:00:00 24 10 Noroeste 31 Noroeste 0 -- -- 45
2019-05-27 13:00:00 22.3 11 Noroeste 36 Oeste 0 -- -- 49
2019-05-27 12:00:00 20.7 9 Noroeste 31 Noroeste 0 -- -- 52
2019-05-27 11:00:00 20 10 Noroeste 32 Oeste 0 -- -- 52
2019-05-27 10:00:00 17 11 Noroeste 35 Oeste 0 -- -- 61
2019-05-27 09:00:00 15.5 21 Oeste 39 Oeste 0 -- -- 65
2019-05-27 08:00:00 13.4 18 Oeste 28 Oeste 0 -- -- 73
2019-05-27 07:00:00 12.1 17 Oeste 30 Oeste 0 -- -- 77
2019-05-27 06:00:00 12.2 17 Oeste 28 Oeste 0 -- -- 77
2019-05-27 05:00:00 12.8 15 Oeste 28 Noroeste 0 -- -- 75
2019-05-27 04:00:00 13.2 16 Oeste 33 Oeste 0 -- -- 73
2019-05-27 03:00:00 13.5 18 Oeste 32 Oeste 0 -- -- 73
2019-05-27 02:00:00 13.9 15 Oeste 33 Oeste 0 -- -- 72
2019-05-27 01:00:00 14.5 16 Oeste 36 Oeste 0 -- -- 70
2019-05-27 00:00:00 15.2 19 Oeste 37 Oeste 0 -- -- 67
2019-05-26 23:00:00 16 23 Oeste 39 Oeste 0 -- -- 64
2019-05-26 22:00:00 17 13 Noroeste 43 Oeste 0 -- -- 59
2019-05-26 21:00:00 18.7 13 Noroeste 36 Noroeste 0 -- -- 53
2019-05-26 20:00:00 20.7 12 Noroeste 33 Norte 0 -- -- 48
2019-05-26 19:00:00 22.5 14 Noroeste 38 Oeste 0 -- -- 44
2019-05-26 18:00:00 23.1 11 Noroeste 30 Noroeste 0 -- -- 43
2019-05-26 17:00:00 24.4 10 Noroeste 41 Oeste 0 -- -- 41
2019-05-26 16:00:00 23.5 11 Noroeste 34 Oeste 0 -- -- 43
2019-05-26 15:00:00 22.6 13 Noroeste 37 Noroeste 0 -- -- 44
2019-05-26 14:00:00 22.6 10 Noroeste 29 Oeste 0 -- -- 45
2019-05-26 13:00:00 21.4 11 Noroeste 27 Noroeste 0 -- -- 46
2019-05-26 12:00:00 20 13 Noroeste 32 Oeste 0 -- -- 49
2019-05-26 11:00:00 18.8 15 Oeste 34 Oeste 0 -- -- 52
2019-05-26 10:00:00 17 11 Noroeste 31 Oeste 0 -- -- 55
2019-05-26 09:00:00 15.1 12 Noroeste 34 Oeste 0 -- -- 60
2019-05-26 08:00:00 12.9 13 Oeste 26 Oeste 0 -- -- 67
2019-05-26 07:00:00 11 14 Oeste 24 Oeste 0 -- -- 72
2019-05-26 06:00:00 11.3 14 Oeste 28 Oeste 0 -- -- 70
2019-05-26 05:00:00 11.8 18 Oeste 33 Oeste 0 -- -- 69
2019-05-26 04:00:00 12.1 18 Oeste 39 Noroeste 0 -- -- 69
2019-05-26 03:00:00 12.4 18 Oeste 38 Oeste 0 -- -- 70
2019-05-26 02:00:00 12.9 23 Oeste 38 Oeste 0 -- -- 69
2019-05-26 01:00:00 13.2 16 Oeste 37 Noroeste 0 -- -- 69
2019-05-26 00:00:00 13.9 21 Oeste 39 Oeste 0 -- -- 68
2019-05-25 23:00:00 14.9 19 Noroeste 42 Oeste 0 -- -- 66
2019-05-25 22:00:00 16 14 Noroeste 36 Noroeste 0 -- -- 63
2019-05-25 21:00:00 17.4 13 Noroeste 42 Noroeste 0 -- -- 59
2019-05-25 20:00:00 19.3 18 Noroeste 44 Noroeste 0 -- -- 54
2019-05-25 19:00:00 21.2 14 Noroeste 38 Noroeste 0 -- -- 48
2019-05-25 18:00:00 23.1 13 Noroeste 35 Noroeste 0 -- -- 45
2019-05-25 17:00:00 23.8 10 Noroeste 42 Oeste 0 -- -- 44
2019-05-25 16:00:00 23.5 13 Noroeste 37 Noroeste 0 -- -- 44
2019-05-25 15:00:00 22.2 11 Noroeste 33 Oeste 0 -- -- 50
2019-05-25 14:00:00 21.5 13 Noroeste 31 Oeste 0 -- -- 51
2019-05-25 13:00:00 20.7 11 Noroeste 32 Oeste 0 -- -- 55
2019-05-25 12:00:00 19.1 10 Noroeste 35 Noroeste 0 -- -- 58
2019-05-25 11:00:00 18 17 Noroeste 39 Noroeste 0 -- -- 62
2019-05-25 10:00:00 16.5 14 Noroeste 39 Oeste 0 -- -- 66
2019-05-25 09:00:00 15.3 13 Noroeste 39 Noroeste 0 -- -- 69
2019-05-25 08:00:00 13.4 12 Noroeste 36 Oeste 0 -- -- 74
2019-05-25 07:00:00 12.7 15 Noroeste 36 Oeste 0 -- -- 75
2019-05-25 06:00:00 12.9 14 Noroeste 35 Oeste 0 -- -- 75
2019-05-25 05:00:00 12.8 15 Noroeste 32 Oeste 0 -- -- 76
2019-05-25 04:00:00 12.7 14 Noroeste 33 Oeste 0 -- -- 76
2019-05-25 03:00:00 13 14 Oeste 34 Oeste 0 -- -- 76
2019-05-25 02:00:00 13.2 13 Noroeste 31 Noroeste 0 -- -- 77
2019-05-25 01:00:00 13.5 11 Noroeste 32 Noroeste 0 -- -- 78
2019-05-25 00:00:00 13.8 12 Noroeste 34 Noroeste 0 -- -- 76